sensor_id;sensor_type;location;lat;lon;timestamp;P1;durP1;ratioP1;P2;durP2;ratioP2
16436;SDS011;8328;52.206;21.006;2023-05-10T00:00:27;12.03;;;9.00;;
16436;SDS011;8328;52.206;21.006;2023-05-10T00:02:54;11.53;;;7.70;;
16436;SDS011;8328;52.206;21.006;2023-05-10T00:05:20;12.20;;;7.57;;
16436;SDS011;8328;52.206;21.006;2023-05-10T00:07:46;11.60;;;7.37;;
16436;SDS011;8328;52.206;21.006;2023-05-10T00:10:12;12.10;;;7.80;;
16436;SDS011;8328;52.206;21.006;2023-05-10T00:12:37;10.23;;;7.07;;
16436;SDS011;8328;52.206;21.006;2023-05-10T00:15:04;11.40;;;7.00;;
16436;SDS011;8328;52.206;21.006;2023-05-10T00:17:30;13.93;;;6.97;;
16436;SDS011;8328;52.206;21.006;2023-05-10T00:19:56;8.93;;;6.37;;
16436;SDS011;8328;52.206;21.006;2023-05-10T00:22:21;11.87;;;7.23;;
16436;SDS011;8328;52.206;21.006;2023-05-10T00:24:47;10.07;;;6.80;;
16436;SDS011;8328;52.206;21.006;2023-05-10T00:27:13;12.70;;;6.80;;
16436;SDS011;8328;52.206;21.006;2023-05-10T00:29:39;13.17;;;7.00;;
16436;SDS011;8328;52.206;21.006;2023-05-10T00:32:05;12.80;;;6.43;;
16436;SDS011;8328;52.206;21.006;2023-05-10T00:34:31;9.53;;;6.60;;
16436;SDS011;8328;52.206;21.006;2023-05-10T00:36:57;8.20;;;5.90;;
16436;SDS011;8328;52.206;21.006;2023-05-10T00:39:23;9.40;;;6.50;;
16436;SDS011;8328;52.206;21.006;2023-05-10T00:41:48;8.90;;;6.30;;
16436;SDS011;8328;52.206;21.006;2023-05-10T00:44:14;11.97;;;6.43;;
16436;SDS011;8328;52.206;21.006;2023-05-10T00:46:40;8.57;;;5.67;;
16436;SDS011;8328;52.206;21.006;2023-05-10T00:49:06;9.60;;;6.53;;
16436;SDS011;8328;52.206;21.006;2023-05-10T00:51:32;10.53;;;6.33;;
16436;SDS011;8328;52.206;21.006;2023-05-10T00:53:58;8.33;;;5.80;;
16436;SDS011;8328;52.206;21.006;2023-05-10T00:56:25;8.80;;;6.37;;
16436;SDS011;8328;52.206;21.006;2023-05-10T00:58:53;9.73;;;5.87;;
16436;SDS011;8328;52.206;21.006;2023-05-10T01:01:19;10.10;;;5.80;;
16436;SDS011;8328;52.206;21.006;2023-05-10T01:03:45;10.27;;;5.97;;
16436;SDS011;8328;52.206;21.006;2023-05-10T01:06:12;8.13;;;5.07;;
16436;SDS011;8328;52.206;21.006;2023-05-10T01:08:38;7.93;;;5.63;;
16436;SDS011;8328;52.206;21.006;2023-05-10T01:11:04;11.63;;;5.93;;
16436;SDS011;8328;52.206;21.006;2023-05-10T01:13:31;9.73;;;5.97;;
16436;SDS011;8328;52.206;21.006;2023-05-10T01:16:01;8.03;;;5.43;;
16436;SDS011;8328;52.206;21.006;2023-05-10T01:18:28;8.67;;;5.80;;
16436;SDS011;8328;52.206;21.006;2023-05-10T01:21:30;9.60;;;6.03;;
16436;SDS011;8328;52.206;21.006;2023-05-10T01:35:17;8.13;;;4.77;;
16436;SDS011;8328;52.206;21.006;2023-05-10T01:43:16;8.13;;;5.10;;
16436;SDS011;8328;52.206;21.006;2023-05-10T01:45:47;9.37;;;5.03;;
16436;SDS011;8328;52.206;21.006;2023-05-10T01:48:22;11.10;;;5.43;;
16436;SDS011;8328;52.206;21.006;2023-05-10T01:50:52;6.27;;;4.70;;
16436;SDS011;8328;52.206;21.006;2023-05-10T01:53:19;8.07;;;4.90;;
16436;SDS011;8328;52.206;21.006;2023-05-10T01:55:47;10.73;;;5.30;;
16436;SDS011;8328;52.206;21.006;2023-05-10T01:58:34;7.13;;;5.00;;
16436;SDS011;8328;52.206;21.006;2023-05-10T02:01:03;6.97;;;4.77;;
16436;SDS011;8328;52.206;21.006;2023-05-10T02:03:30;9.37;;;5.03;;
16436;SDS011;8328;52.206;21.006;2023-05-10T02:05:58;6.87;;;4.50;;
16436;SDS011;8328;52.206;21.006;2023-05-10T02:08:24;8.27;;;5.13;;
16436;SDS011;8328;52.206;21.006;2023-05-10T02:10:53;7.10;;;4.80;;
16436;SDS011;8328;52.206;21.006;2023-05-10T02:13:21;6.27;;;4.80;;
16436;SDS011;8328;52.206;21.006;2023-05-10T02:15:49;6.27;;;4.47;;
16436;SDS011;8328;52.206;21.006;2023-05-10T02:18:16;6.40;;;4.57;;
16436;SDS011;8328;52.206;21.006;2023-05-10T02:20:45;6.83;;;4.33;;
16436;SDS011;8328;52.206;21.006;2023-05-10T02:23:12;6.67;;;4.60;;
16436;SDS011;8328;52.206;21.006;2023-05-10T02:25:40;7.53;;;4.73;;
16436;SDS011;8328;52.206;21.006;2023-05-10T02:28:07;6.23;;;4.30;;
16436;SDS011;8328;52.206;21.006;2023-05-10T02:30:35;7.10;;;4.37;;
16436;SDS011;8328;52.206;21.006;2023-05-10T02:33:02;7.30;;;4.43;;
16436;SDS011;8328;52.206;21.006;2023-05-10T02:35:30;7.67;;;4.40;;
16436;SDS011;8328;52.206;21.006;2023-05-10T02:37:58;8.33;;;4.83;;
16436;SDS011;8328;52.206;21.006;2023-05-10T02:40:25;8.37;;;4.73;;
16436;SDS011;8328;52.206;21.006;2023-05-10T02:42:54;6.90;;;4.23;;
16436;SDS011;8328;52.206;21.006;2023-05-10T02:45:22;7.63;;;4.77;;
16436;SDS011;8328;52.206;21.006;2023-05-10T02:47:51;11.27;;;4.83;;
16436;SDS011;8328;52.206;21.006;2023-05-10T02:50:17;8.30;;;4.30;;
16436;SDS011;8328;52.206;21.006;2023-05-10T02:52:49;7.17;;;4.77;;
16436;SDS011;8328;52.206;21.006;2023-05-10T02:55:19;9.30;;;4.60;;
16436;SDS011;8328;52.206;21.006;2023-05-10T02:57:56;7.30;;;5.03;;
16436;SDS011;8328;52.206;21.006;2023-05-10T03:00:24;9.17;;;5.17;;
16436;SDS011;8328;52.206;21.006;2023-05-10T03:02:50;6.97;;;4.23;;
16436;SDS011;8328;52.206;21.006;2023-05-10T03:05:16;7.50;;;4.47;;
16436;SDS011;8328;52.206;21.006;2023-05-10T03:07:42;8.13;;;4.83;;
16436;SDS011;8328;52.206;21.006;2023-05-10T03:10:08;10.83;;;4.70;;
16436;SDS011;8328;52.206;21.006;2023-05-10T03:20:38;9.80;;;4.50;;
16436;SDS011;8328;52.206;21.006;2023-05-10T03:23:51;7.27;;;4.40;;
16436;SDS011;8328;52.206;21.006;2023-05-10T03:26:01;6.90;;;4.53;;
16436;SDS011;8328;52.206;21.006;2023-05-10T03:28:29;12.20;;;4.70;;
16436;SDS011;8328;52.206;21.006;2023-05-10T03:30:56;6.50;;;5.17;;
16436;SDS011;8328;52.206;21.006;2023-05-10T03:33:23;7.37;;;4.63;;
16436;SDS011;8328;52.206;21.006;2023-05-10T03:35:49;7.73;;;4.93;;
16436;SDS011;8328;52.206;21.006;2023-05-10T03:38:14;9.33;;;4.80;;
16436;SDS011;8328;52.206;21.006;2023-05-10T03:40:40;8.60;;;4.97;;
16436;SDS011;8328;52.206;21.006;2023-05-10T03:43:06;8.40;;;5.20;;
16436;SDS011;8328;52.206;21.006;2023-05-10T03:45:32;9.03;;;4.90;;
16436;SDS011;8328;52.206;21.006;2023-05-10T03:47:57;8.50;;;5.10;;
16436;SDS011;8328;52.206;21.006;2023-05-10T03:50:23;7.83;;;5.27;;
16436;SDS011;8328;52.206;21.006;2023-05-10T03:52:50;9.83;;;5.57;;
16436;SDS011;8328;52.206;21.006;2023-05-10T03:55:15;10.30;;;6.10;;
16436;SDS011;8328;52.206;21.006;2023-05-10T03:57:41;13.60;;;6.53;;
16436;SDS011;8328;52.206;21.006;2023-05-10T04:00:08;6.73;;;4.40;;
16436;SDS011;8328;52.206;21.006;2023-05-10T04:02:34;8.07;;;4.97;;
16436;SDS011;8328;52.206;21.006;2023-05-10T04:05:00;6.80;;;4.90;;
16436;SDS011;8328;52.206;21.006;2023-05-10T04:07:27;7.30;;;5.10;;
16436;SDS011;8328;52.206;21.006;2023-05-10T04:09:53;11.93;;;5.83;;
16436;SDS011;8328;52.206;21.006;2023-05-10T04:12:19;9.67;;;4.53;;
16436;SDS011;8328;52.206;21.006;2023-05-10T04:14:45;8.80;;;5.20;;
16436;SDS011;8328;52.206;21.006;2023-05-10T04:17:10;9.37;;;4.80;;
16436;SDS011;8328;52.206;21.006;2023-05-10T04:19:36;13.23;;;4.87;;
16436;SDS011;8328;52.206;21.006;2023-05-10T04:22:02;7.53;;;4.60;;
16436;SDS011;8328;52.206;21.006;2023-05-10T04:24:28;9.10;;;4.77;;
16436;SDS011;8328;52.206;21.006;2023-05-10T04:26:54;7.27;;;4.20;;
16436;SDS011;8328;52.206;21.006;2023-05-10T04:29:20;10.10;;;6.00;;
16436;SDS011;8328;52.206;21.006;2023-05-10T04:31:46;6.77;;;4.23;;
16436;SDS011;8328;52.206;21.006;2023-05-10T04:34:12;5.43;;;4.53;;
16436;SDS011;8328;52.206;21.006;2023-05-10T04:36:38;7.60;;;4.87;;
16436;SDS011;8328;52.206;21.006;2023-05-10T04:39:04;8.07;;;4.83;;
16436;SDS011;8328;52.206;21.006;2023-05-10T04:41:29;7.17;;;4.30;;
16436;SDS011;8328;52.206;21.006;2023-05-10T04:43:55;6.13;;;4.87;;
16436;SDS011;8328;52.206;21.006;2023-05-10T04:46:21;8.87;;;5.37;;
16436;SDS011;8328;52.206;21.006;2023-05-10T04:48:47;6.83;;;4.67;;
16436;SDS011;8328;52.206;21.006;2023-05-10T04:51:13;9.83;;;4.33;;
16436;SDS011;8328;52.206;21.006;2023-05-10T04:53:41;8.40;;;4.97;;
16436;SDS011;8328;52.206;21.006;2023-05-10T04:56:07;9.90;;;5.20;;
16436;SDS011;8328;52.206;21.006;2023-05-10T04:58:33;7.77;;;5.07;;
16436;SDS011;8328;52.206;21.006;2023-05-10T05:01:08;7.90;;;4.33;;
16436;SDS011;8328;52.206;21.006;2023-05-10T05:03:35;6.77;;;4.33;;
16436;SDS011;8328;52.206;21.006;2023-05-10T05:06:01;7.20;;;3.93;;
16436;SDS011;8328;52.206;21.006;2023-05-10T05:08:27;9.37;;;4.53;;
16436;SDS011;8328;52.206;21.006;2023-05-10T05:10:53;7.23;;;4.43;;
16436;SDS011;8328;52.206;21.006;2023-05-10T05:13:19;10.53;;;4.50;;
16436;SDS011;8328;52.206;21.006;2023-05-10T05:15:45;5.63;;;3.97;;
16436;SDS011;8328;52.206;21.006;2023-05-10T05:18:11;5.07;;;4.03;;
16436;SDS011;8328;52.206;21.006;2023-05-10T05:20:38;8.90;;;4.57;;
16436;SDS011;8328;52.206;21.006;2023-05-10T05:23:04;5.33;;;3.67;;
16436;SDS011;8328;52.206;21.006;2023-05-10T05:25:30;10.40;;;4.23;;
16436;SDS011;8328;52.206;21.006;2023-05-10T05:27:55;7.80;;;4.13;;
16436;SDS011;8328;52.206;21.006;2023-05-10T05:30:21;6.30;;;4.43;;
16436;SDS011;8328;52.206;21.006;2023-05-10T05:32:47;5.57;;;4.13;;
16436;SDS011;8328;52.206;21.006;2023-05-10T05:35:13;6.63;;;4.90;;
16436;SDS011;8328;52.206;21.006;2023-05-10T05:37:38;11.17;;;4.17;;
16436;SDS011;8328;52.206;21.006;2023-05-10T05:40:04;8.73;;;4.20;;
16436;SDS011;8328;52.206;21.006;2023-05-10T05:42:31;5.37;;;4.07;;
16436;SDS011;8328;52.206;21.006;2023-05-10T05:44:57;5.97;;;3.70;;
16436;SDS011;8328;52.206;21.006;2023-05-10T05:47:26;9.00;;;4.60;;
16436;SDS011;8328;52.206;21.006;2023-05-10T05:49:53;7.30;;;4.67;;
16436;SDS011;8328;52.206;21.006;2023-05-10T05:52:18;7.23;;;3.80;;
16436;SDS011;8328;52.206;21.006;2023-05-10T05:54:44;6.07;;;4.00;;
16436;SDS011;8328;52.206;21.006;2023-05-10T05:57:10;7.23;;;4.37;;
16436;SDS011;8328;52.206;21.006;2023-05-10T05:59:36;7.90;;;5.03;;
16436;SDS011;8328;52.206;21.006;2023-05-10T06:02:07;5.33;;;3.47;;
16436;SDS011;8328;52.206;21.006;2023-05-10T06:04:34;7.23;;;4.73;;
16436;SDS011;8328;52.206;21.006;2023-05-10T06:07:00;6.73;;;4.23;;
16436;SDS011;8328;52.206;21.006;2023-05-10T06:09:26;7.17;;;5.77;;
16436;SDS011;8328;52.206;21.006;2023-05-10T06:11:52;7.40;;;4.73;;
16436;SDS011;8328;52.206;21.006;2023-05-10T06:14:19;8.23;;;4.00;;
16436;SDS011;8328;52.206;21.006;2023-05-10T06:16:45;8.00;;;3.77;;
16436;SDS011;8328;52.206;21.006;2023-05-10T06:19:11;6.83;;;3.73;;
16436;SDS011;8328;52.206;21.006;2023-05-10T06:21:37;8.43;;;4.10;;
16436;SDS011;8328;52.206;21.006;2023-05-10T06:24:03;9.07;;;4.20;;
16436;SDS011;8328;52.206;21.006;2023-05-10T06:26:30;6.07;;;3.93;;
16436;SDS011;8328;52.206;21.006;2023-05-10T06:28:56;5.70;;;3.83;;
16436;SDS011;8328;52.206;21.006;2023-05-10T06:31:22;10.83;;;4.03;;
16436;SDS011;8328;52.206;21.006;2023-05-10T06:33:47;5.87;;;3.30;;
16436;SDS011;8328;52.206;21.006;2023-05-10T06:36:13;4.47;;;3.90;;
16436;SDS011;8328;52.206;21.006;2023-05-10T06:38:39;5.27;;;4.00;;
16436;SDS011;8328;52.206;21.006;2023-05-10T06:41:05;6.30;;;3.20;;
16436;SDS011;8328;52.206;21.006;2023-05-10T06:43:31;5.83;;;3.57;;
16436;SDS011;8328;52.206;21.006;2023-05-10T06:45:57;5.37;;;3.70;;
16436;SDS011;8328;52.206;21.006;2023-05-10T06:48:23;7.03;;;3.70;;
16436;SDS011;8328;52.206;21.006;2023-05-10T06:50:49;8.47;;;4.23;;
16436;SDS011;8328;52.206;21.006;2023-05-10T06:53:14;5.37;;;3.13;;
16436;SDS011;8328;52.206;21.006;2023-05-10T06:55:40;9.40;;;2.97;;
16436;SDS011;8328;52.206;21.006;2023-05-10T06:58:06;7.67;;;3.27;;
16436;SDS011;8328;52.206;21.006;2023-05-10T07:00:32;10.47;;;3.37;;
16436;SDS011;8328;52.206;21.006;2023-05-10T07:02:58;3.23;;;2.60;;
16436;SDS011;8328;52.206;21.006;2023-05-10T07:05:23;5.13;;;3.57;;
16436;SDS011;8328;52.206;21.006;2023-05-10T07:07:49;7.23;;;3.50;;
16436;SDS011;8328;52.206;21.006;2023-05-10T07:10:16;5.77;;;2.67;;
16436;SDS011;8328;52.206;21.006;2023-05-10T07:12:42;6.13;;;3.10;;
16436;SDS011;8328;52.206;21.006;2023-05-10T07:15:08;4.73;;;2.57;;
16436;SDS011;8328;52.206;21.006;2023-05-10T07:17:34;9.87;;;2.63;;
16436;SDS011;8328;52.206;21.006;2023-05-10T07:20:00;4.93;;;2.30;;
16436;SDS011;8328;52.206;21.006;2023-05-10T07:22:26;3.90;;;2.40;;
16436;SDS011;8328;52.206;21.006;2023-05-10T07:24:52;5.17;;;2.57;;
16436;SDS011;8328;52.206;21.006;2023-05-10T07:27:18;5.03;;;2.50;;
16436;SDS011;8328;52.206;21.006;2023-05-10T07:29:44;5.90;;;3.00;;
16436;SDS011;8328;52.206;21.006;2023-05-10T07:32:10;3.10;;;2.30;;
16436;SDS011;8328;52.206;21.006;2023-05-10T07:34:36;4.30;;;2.13;;
16436;SDS011;8328;52.206;21.006;2023-05-10T07:37:02;5.13;;;2.50;;
16436;SDS011;8328;52.206;21.006;2023-05-10T07:39:29;3.97;;;2.20;;
16436;SDS011;8328;52.206;21.006;2023-05-10T07:41:55;6.20;;;2.20;;
16436;SDS011;8328;52.206;21.006;2023-05-10T07:44:21;3.37;;;2.17;;
16436;SDS011;8328;52.206;21.006;2023-05-10T07:46:47;4.07;;;2.37;;
16436;SDS011;8328;52.206;21.006;2023-05-10T07:49:16;5.60;;;2.77;;
16436;SDS011;8328;52.206;21.006;2023-05-10T07:51:43;3.60;;;1.73;;
16436;SDS011;8328;52.206;21.006;2023-05-10T07:54:09;5.33;;;2.13;;
16436;SDS011;8328;52.206;21.006;2023-05-10T07:56:35;5.10;;;2.60;;
16436;SDS011;8328;52.206;21.006;2023-05-10T07:59:02;3.33;;;2.17;;
16436;SDS011;8328;52.206;21.006;2023-05-10T08:01:35;6.20;;;2.17;;
16436;SDS011;8328;52.206;21.006;2023-05-10T08:04:09;3.30;;;2.07;;
16436;SDS011;8328;52.206;21.006;2023-05-10T08:06:40;4.63;;;1.90;;
16436;SDS011;8328;52.206;21.006;2023-05-10T08:09:07;5.93;;;2.00;;
16436;SDS011;8328;52.206;21.006;2023-05-10T08:12:04;7.07;;;2.17;;
16436;SDS011;8328;52.206;21.006;2023-05-10T08:14:42;3.10;;;2.00;;
16436;SDS011;8328;52.206;21.006;2023-05-10T08:17:07;7.97;;;2.53;;
16436;SDS011;8328;52.206;21.006;2023-05-10T08:19:33;7.20;;;2.40;;
16436;SDS011;8328;52.206;21.006;2023-05-10T08:21:59;6.13;;;2.10;;
16436;SDS011;8328;52.206;21.006;2023-05-10T08:24:27;4.83;;;1.90;;
16436;SDS011;8328;52.206;21.006;2023-05-10T08:26:54;5.23;;;1.80;;
16436;SDS011;8328;52.206;21.006;2023-05-10T08:29:19;3.43;;;2.10;;
16436;SDS011;8328;52.206;21.006;2023-05-10T08:31:45;3.67;;;2.13;;
16436;SDS011;8328;52.206;21.006;2023-05-10T08:34:11;4.07;;;2.13;;
16436;SDS011;8328;52.206;21.006;2023-05-10T08:36:37;3.97;;;2.00;;
16436;SDS011;8328;52.206;21.006;2023-05-10T08:39:04;3.77;;;1.97;;
16436;SDS011;8328;52.206;21.006;2023-05-10T08:41:30;2.73;;;2.20;;
16436;SDS011;8328;52.206;21.006;2023-05-10T08:44:00;3.53;;;1.80;;
16436;SDS011;8328;52.206;21.006;2023-05-10T08:46:30;4.60;;;2.03;;
16436;SDS011;8328;52.206;21.006;2023-05-10T08:48:58;2.80;;;2.10;;
16436;SDS011;8328;52.206;21.006;2023-05-10T08:51:27;4.13;;;2.13;;
16436;SDS011;8328;52.206;21.006;2023-05-10T08:53:57;4.97;;;2.00;;
16436;SDS011;8328;52.206;21.006;2023-05-10T08:56:25;5.20;;;2.13;;
16436;SDS011;8328;52.206;21.006;2023-05-10T08:58:51;4.03;;;2.00;;
16436;SDS011;8328;52.206;21.006;2023-05-10T09:01:21;3.77;;;2.33;;
16436;SDS011;8328;52.206;21.006;2023-05-10T09:03:47;3.77;;;2.30;;
16436;SDS011;8328;52.206;21.006;2023-05-10T09:06:14;3.20;;;2.10;;
16436;SDS011;8328;52.206;21.006;2023-05-10T09:08:41;5.77;;;2.23;;
16436;SDS011;8328;52.206;21.006;2023-05-10T09:11:08;3.63;;;2.00;;
16436;SDS011;8328;52.206;21.006;2023-05-10T09:13:35;2.33;;;2.00;;
16436;SDS011;8328;52.206;21.006;2023-05-10T09:16:03;2.50;;;2.07;;
16436;SDS011;8328;52.206;21.006;2023-05-10T09:18:29;6.17;;;2.40;;
16436;SDS011;8328;52.206;21.006;2023-05-10T09:20:55;3.63;;;2.30;;
16436;SDS011;8328;52.206;21.006;2023-05-10T09:23:21;5.33;;;2.10;;
16436;SDS011;8328;52.206;21.006;2023-05-10T09:25:48;4.07;;;2.30;;
16436;SDS011;8328;52.206;21.006;2023-05-10T09:28:49;5.83;;;2.27;;
16436;SDS011;8328;52.206;21.006;2023-05-10T09:31:18;3.83;;;2.03;;
16436;SDS011;8328;52.206;21.006;2023-05-10T09:33:45;3.67;;;1.97;;
16436;SDS011;8328;52.206;21.006;2023-05-10T09:36:12;3.60;;;2.27;;
16436;SDS011;8328;52.206;21.006;2023-05-10T09:38:48;4.23;;;2.23;;
16436;SDS011;8328;52.206;21.006;2023-05-10T09:41:19;4.67;;;2.97;;
16436;SDS011;8328;52.206;21.006;2023-05-10T09:43:46;4.10;;;2.20;;
16436;SDS011;8328;52.206;21.006;2023-05-10T09:46:13;3.47;;;1.97;;
16436;SDS011;8328;52.206;21.006;2023-05-10T09:48:46;4.13;;;2.10;;
16436;SDS011;8328;52.206;21.006;2023-05-10T09:51:20;10.10;;;2.63;;
16436;SDS011;8328;52.206;21.006;2023-05-10T09:54:12;3.77;;;2.47;;
16436;SDS011;8328;52.206;21.006;2023-05-10T09:56:40;4.23;;;2.23;;
16436;SDS011;8328;52.206;21.006;2023-05-10T09:59:06;3.70;;;2.20;;
16436;SDS011;8328;52.206;21.006;2023-05-10T10:01:34;7.83;;;2.13;;
16436;SDS011;8328;52.206;21.006;2023-05-10T10:04:09;5.53;;;2.53;;
16436;SDS011;8328;52.206;21.006;2023-05-10T10:06:39;6.30;;;2.13;;
16436;SDS011;8328;52.206;21.006;2023-05-10T10:09:05;4.63;;;2.00;;
16436;SDS011;8328;52.206;21.006;2023-05-10T10:11:33;4.90;;;2.10;;
16436;SDS011;8328;52.206;21.006;2023-05-10T10:14:00;6.50;;;2.10;;
16436;SDS011;8328;52.206;21.006;2023-05-10T10:16:27;2.93;;;2.00;;
16436;SDS011;8328;52.206;21.006;2023-05-10T10:18:55;3.87;;;2.20;;
16436;SDS011;8328;52.206;21.006;2023-05-10T10:21:21;2.63;;;2.00;;
16436;SDS011;8328;52.206;21.006;2023-05-10T10:23:48;4.00;;;2.40;;
16436;SDS011;8328;52.206;21.006;2023-05-10T10:26:13;6.00;;;2.43;;
16436;SDS011;8328;52.206;21.006;2023-05-10T10:28:49;2.57;;;1.87;;
16436;SDS011;8328;52.206;21.006;2023-05-10T10:31:26;13.50;;;2.90;;
16436;SDS011;8328;52.206;21.006;2023-05-10T10:34:23;3.97;;;2.27;;
16436;SDS011;8328;52.206;21.006;2023-05-10T10:36:54;6.60;;;2.20;;
16436;SDS011;8328;52.206;21.006;2023-05-10T10:39:22;3.53;;;2.20;;
16436;SDS011;8328;52.206;21.006;2023-05-10T10:41:53;5.20;;;2.23;;
16436;SDS011;8328;52.206;21.006;2023-05-10T10:52:31;2.97;;;1.90;;
16436;SDS011;8328;52.206;21.006;2023-05-10T10:55:14;2.97;;;2.03;;
16436;SDS011;8328;52.206;21.006;2023-05-10T10:57:53;3.10;;;2.00;;
16436;SDS011;8328;52.206;21.006;2023-05-10T11:00:33;4.70;;;2.47;;
16436;SDS011;8328;52.206;21.006;2023-05-10T11:03:08;2.70;;;1.90;;
16436;SDS011;8328;52.206;21.006;2023-05-10T11:05:47;3.83;;;2.20;;
16436;SDS011;8328;52.206;21.006;2023-05-10T11:08:17;2.63;;;1.90;;
16436;SDS011;8328;52.206;21.006;2023-05-10T11:13:32;4.10;;;2.10;;
16436;SDS011;8328;52.206;21.006;2023-05-10T11:16:09;3.43;;;2.00;;
16436;SDS011;8328;52.206;21.006;2023-05-10T11:18:37;4.93;;;2.00;;
16436;SDS011;8328;52.206;21.006;2023-05-10T11:21:03;4.70;;;2.20;;
16436;SDS011;8328;52.206;21.006;2023-05-10T11:26:11;7.70;;;2.13;;
16436;SDS011;8328;52.206;21.006;2023-05-10T11:28:41;3.33;;;2.07;;
16436;SDS011;8328;52.206;21.006;2023-05-10T11:31:08;4.17;;;2.17;;
16436;SDS011;8328;52.206;21.006;2023-05-10T11:33:44;5.17;;;2.23;;
16436;SDS011;8328;52.206;21.006;2023-05-10T11:36:35;7.80;;;2.60;;
16436;SDS011;8328;52.206;21.006;2023-05-10T11:39:00;7.43;;;2.57;;
16436;SDS011;8328;52.206;21.006;2023-05-10T11:41:28;6.37;;;2.63;;
16436;SDS011;8328;52.206;21.006;2023-05-10T11:43:55;6.03;;;2.30;;
16436;SDS011;8328;52.206;21.006;2023-05-10T11:46:23;5.23;;;2.37;;
16436;SDS011;8328;52.206;21.006;2023-05-10T11:49:00;7.43;;;1.93;;
16436;SDS011;8328;52.206;21.006;2023-05-10T11:51:29;4.90;;;2.23;;
16436;SDS011;8328;52.206;21.006;2023-05-10T11:53:58;3.47;;;2.00;;
16436;SDS011;8328;52.206;21.006;2023-05-10T11:56:24;2.67;;;2.07;;
16436;SDS011;8328;52.206;21.006;2023-05-10T11:58:55;10.50;;;2.50;;
16436;SDS011;8328;52.206;21.006;2023-05-10T12:01:35;3.83;;;1.90;;
16436;SDS011;8328;52.206;21.006;2023-05-10T12:04:01;5.73;;;2.50;;
16436;SDS011;8328;52.206;21.006;2023-05-10T12:06:28;4.73;;;2.37;;
16436;SDS011;8328;52.206;21.006;2023-05-10T12:08:56;4.33;;;2.00;;
16436;SDS011;8328;52.206;21.006;2023-05-10T12:11:24;4.73;;;2.30;;
16436;SDS011;8328;52.206;21.006;2023-05-10T12:13:52;3.50;;;1.97;;
16436;SDS011;8328;52.206;21.006;2023-05-10T12:16:19;2.73;;;1.90;;
16436;SDS011;8328;52.206;21.006;2023-05-10T12:18:52;2.77;;;2.10;;
16436;SDS011;8328;52.206;21.006;2023-05-10T12:21:20;6.40;;;1.83;;
16436;SDS011;8328;52.206;21.006;2023-05-10T12:23:49;4.03;;;2.27;;
16436;SDS011;8328;52.206;21.006;2023-05-10T12:26:17;4.50;;;2.10;;
16436;SDS011;8328;52.206;21.006;2023-05-10T12:28:43;6.77;;;2.30;;
16436;SDS011;8328;52.206;21.006;2023-05-10T12:31:09;7.20;;;2.60;;
16436;SDS011;8328;52.206;21.006;2023-05-10T12:33:37;5.93;;;2.30;;
16436;SDS011;8328;52.206;21.006;2023-05-10T12:36:05;4.17;;;2.20;;
16436;SDS011;8328;52.206;21.006;2023-05-10T12:38:38;3.63;;;1.90;;
16436;SDS011;8328;52.206;21.006;2023-05-10T12:41:08;3.40;;;2.20;;
16436;SDS011;8328;52.206;21.006;2023-05-10T12:43:38;2.77;;;1.80;;
16436;SDS011;8328;52.206;21.006;2023-05-10T12:46:05;5.57;;;2.37;;
16436;SDS011;8328;52.206;21.006;2023-05-10T12:48:40;5.97;;;2.47;;
16436;SDS011;8328;52.206;21.006;2023-05-10T12:51:10;3.73;;;2.07;;
16436;SDS011;8328;52.206;21.006;2023-05-10T12:53:42;3.53;;;1.90;;
16436;SDS011;8328;52.206;21.006;2023-05-10T12:56:10;4.50;;;2.07;;
16436;SDS011;8328;52.206;21.006;2023-05-10T12:58:38;6.20;;;5.27;;
16436;SDS011;8328;52.206;21.006;2023-05-10T13:01:05;5.23;;;2.37;;
16436;SDS011;8328;52.206;21.006;2023-05-10T13:03:31;4.47;;;1.90;;
16436;SDS011;8328;52.206;21.006;2023-05-10T13:05:57;6.30;;;1.90;;
16436;SDS011;8328;52.206;21.006;2023-05-10T13:08:28;2.60;;;1.93;;
16436;SDS011;8328;52.206;21.006;2023-05-10T13:10:58;6.53;;;1.93;;
16436;SDS011;8328;52.206;21.006;2023-05-10T13:13:27;5.63;;;2.30;;
16436;SDS011;8328;52.206;21.006;2023-05-10T13:15:53;5.17;;;2.10;;
16436;SDS011;8328;52.206;21.006;2023-05-10T13:18:19;5.20;;;2.10;;
16436;SDS011;8328;52.206;21.006;2023-05-10T13:20:45;3.00;;;1.83;;
16436;SDS011;8328;52.206;21.006;2023-05-10T13:23:11;3.07;;;2.17;;
16436;SDS011;8328;52.206;21.006;2023-05-10T13:25:36;3.80;;;2.00;;
16436;SDS011;8328;52.206;21.006;2023-05-10T13:28:02;3.27;;;2.20;;
16436;SDS011;8328;52.206;21.006;2023-05-10T13:30:28;2.60;;;1.90;;
16436;SDS011;8328;52.206;21.006;2023-05-10T13:32:55;3.40;;;2.00;;
16436;SDS011;8328;52.206;21.006;2023-05-10T13:35:21;4.10;;;1.90;;
16436;SDS011;8328;52.206;21.006;2023-05-10T13:37:46;3.95;;;2.00;;
16436;SDS011;8328;52.206;21.006;2023-05-10T13:40:12;3.28;;;1.92;;
16436;SDS011;8328;52.206;21.006;2023-05-10T13:42:40;5.00;;;2.17;;
16436;SDS011;8328;52.206;21.006;2023-05-10T13:45:06;3.17;;;2.17;;
16436;SDS011;8328;52.206;21.006;2023-05-10T13:47:32;4.43;;;2.08;;
16436;SDS011;8328;52.206;21.006;2023-05-10T13:49:58;3.72;;;2.03;;
16436;SDS011;8328;52.206;21.006;2023-05-10T13:52:23;9.73;;;2.22;;
16436;SDS011;8328;52.206;21.006;2023-05-10T14:00:43;8.55;;;2.85;;
16436;SDS011;8328;52.206;21.006;2023-05-10T14:03:15;2.63;;;2.10;;
16436;SDS011;8328;52.206;21.006;2023-05-10T14:05:41;5.88;;;2.58;;
16436;SDS011;8328;52.206;21.006;2023-05-10T14:08:08;6.97;;;2.60;;
16436;SDS011;8328;52.206;21.006;2023-05-10T14:10:34;2.13;;;1.90;;
16436;SDS011;8328;52.206;21.006;2023-05-10T14:13:00;4.38;;;2.10;;
16436;SDS011;8328;52.206;21.006;2023-05-10T14:15:28;3.88;;;2.13;;
16436;SDS011;8328;52.206;21.006;2023-05-10T14:17:53;2.97;;;2.08;;
16436;SDS011;8328;52.206;21.006;2023-05-10T14:20:31;4.47;;;2.17;;
16436;SDS011;8328;52.206;21.006;2023-05-10T14:22:58;5.45;;;2.30;;
16436;SDS011;8328;52.206;21.006;2023-05-10T14:25:24;4.45;;;1.98;;
16436;SDS011;8328;52.206;21.006;2023-05-10T14:27:50;4.38;;;2.28;;
16436;SDS011;8328;52.206;21.006;2023-05-10T14:30:19;4.10;;;1.90;;
16436;SDS011;8328;52.206;21.006;2023-05-10T14:32:45;4.40;;;2.08;;
16436;SDS011;8328;52.206;21.006;2023-05-10T14:35:11;2.75;;;1.80;;
16436;SDS011;8328;52.206;21.006;2023-05-10T14:37:38;2.42;;;1.90;;
16436;SDS011;8328;52.206;21.006;2023-05-10T14:40:05;4.57;;;2.00;;
16436;SDS011;8328;52.206;21.006;2023-05-10T14:42:32;3.60;;;2.22;;
16436;SDS011;8328;52.206;21.006;2023-05-10T14:44:57;3.97;;;1.75;;
16436;SDS011;8328;52.206;21.006;2023-05-10T14:47:23;4.40;;;3.17;;
16436;SDS011;8328;52.206;21.006;2023-05-10T14:49:49;4.77;;;2.40;;
16436;SDS011;8328;52.206;21.006;2023-05-10T14:52:15;2.17;;;1.83;;
16436;SDS011;8328;52.206;21.006;2023-05-10T14:54:41;4.23;;;2.17;;
16436;SDS011;8328;52.206;21.006;2023-05-10T14:57:07;4.13;;;2.17;;
16436;SDS011;8328;52.206;21.006;2023-05-10T14:59:33;4.23;;;2.13;;
16436;SDS011;8328;52.206;21.006;2023-05-10T15:01:58;5.90;;;2.00;;
16436;SDS011;8328;52.206;21.006;2023-05-10T15:04:24;6.47;;;2.33;;
16436;SDS011;8328;52.206;21.006;2023-05-10T15:06:50;3.03;;;1.70;;
16436;SDS011;8328;52.206;21.006;2023-05-10T15:09:17;3.47;;;2.00;;
16436;SDS011;8328;52.206;21.006;2023-05-10T15:11:42;4.27;;;1.90;;
16436;SDS011;8328;52.206;21.006;2023-05-10T15:14:10;2.30;;;2.00;;
16436;SDS011;8328;52.206;21.006;2023-05-10T15:16:36;4.77;;;2.07;;
16436;SDS011;8328;52.206;21.006;2023-05-10T15:19:02;5.70;;;2.43;;
16436;SDS011;8328;52.206;21.006;2023-05-10T15:21:28;3.63;;;2.20;;
16436;SDS011;8328;52.206;21.006;2023-05-10T15:24:00;3.17;;;2.00;;
16436;SDS011;8328;52.206;21.006;2023-05-10T15:26:26;3.60;;;1.90;;
16436;SDS011;8328;52.206;21.006;2023-05-10T15:28:51;2.20;;;1.80;;
16436;SDS011;8328;52.206;21.006;2023-05-10T15:31:18;3.90;;;1.80;;
16436;SDS011;8328;52.206;21.006;2023-05-10T15:33:44;3.67;;;1.83;;